createdAt,value
2022-10-25T00:00:28.818Z,14.54
2022-10-25T00:02:55.442Z,14.46
2022-10-25T00:05:22.265Z,14.37
2022-10-25T00:07:49.179Z,14.35
2022-10-25T00:10:16.036Z,14.36
2022-10-25T00:12:44.651Z,14.39
2022-10-25T00:15:14.314Z,14.41
2022-10-25T00:17:41.746Z,14.44
2022-10-25T00:20:10.027Z,14.47
2022-10-25T00:22:37.196Z,14.49
2022-10-25T00:25:05.189Z,14.50
2022-10-25T00:27:31.765Z,14.49
2022-10-25T00:29:58.305Z,14.50
2022-10-25T00:32:24.974Z,14.49
2022-10-25T00:34:51.802Z,14.48
2022-10-25T00:37:19.254Z,14.47
2022-10-25T00:39:46.592Z,14.45
2022-10-25T00:42:21.395Z,14.39
2022-10-25T00:44:54.500Z,14.32
2022-10-25T00:47:21.101Z,14.28
2022-10-25T00:49:57.247Z,14.29
2022-10-25T00:52:24.820Z,14.31
2022-10-25T00:54:53.617Z,14.34
2022-10-25T00:57:55.084Z,14.36
2022-10-25T01:00:22.291Z,14.34
2022-10-25T01:02:49.224Z,14.28
2022-10-25T01:05:17.138Z,14.20
2022-10-25T01:07:44.974Z,14.14
2022-10-25T01:10:11.855Z,14.14
2022-10-25T01:12:38.387Z,14.16
2022-10-25T01:15:05.899Z,14.17
2022-10-25T01:17:41.540Z,14.16
2022-10-25T01:20:30.024Z,14.16
2022-10-25T01:23:21.547Z,14.12
2022-10-25T01:25:56.597Z,14.06
2022-10-25T01:28:26.264Z,14.03
2022-10-25T01:31:06.242Z,14.02
2022-10-25T01:33:44.739Z,13.99
2022-10-25T01:36:48.917Z,13.99
2022-10-25T01:39:39.667Z,14.03
2022-10-25T01:42:23.397Z,14.07
2022-10-25T01:44:59.001Z,14.11
2022-10-25T01:47:50.364Z,14.14
2022-10-25T01:50:28.304Z,14.15
2022-10-25T01:55:40.278Z,14.04
2022-10-25T01:58:25.499Z,13.96
2022-10-25T02:01:15.728Z,13.93
2022-10-25T02:04:05.008Z,13.95
2022-10-25T02:06:48.759Z,13.94
2022-10-25T02:09:47.060Z,13.95
2022-10-25T02:12:19.860Z,14.00
2022-10-25T02:15:12.100Z,14.03
2022-10-25T02:17:49.109Z,14.05
2022-10-25T02:20:19.718Z,14.08
2022-10-25T02:22:47.191Z,14.10
2022-10-25T02:25:14.832Z,14.12
2022-10-25T02:27:41.588Z,14.12
2022-10-25T02:30:09.193Z,14.14
2022-10-25T02:32:35.910Z,14.18
2022-10-25T02:35:02.910Z,14.19
2022-10-25T02:37:30.480Z,14.18
2022-10-25T02:39:57.248Z,14.14
2022-10-25T02:42:23.786Z,14.10
2022-10-25T02:44:50.418Z,14.07
2022-10-25T02:47:16.967Z,14.05
2022-10-25T02:49:43.641Z,14.00
2022-10-25T02:52:10.174Z,13.97
2022-10-25T02:54:36.790Z,13.96
2022-10-25T02:57:03.367Z,13.94
2022-10-25T02:59:30.020Z,13.93
2022-10-25T03:01:56.621Z,13.91
2022-10-25T03:04:23.363Z,13.87
2022-10-25T03:06:49.949Z,13.83
2022-10-25T03:09:16.549Z,13.82
2022-10-25T03:11:43.081Z,13.79
2022-10-25T03:14:09.638Z,13.71
2022-10-25T03:16:36.340Z,13.64
2022-10-25T03:19:03.093Z,13.61
2022-10-25T03:21:29.644Z,13.61
2022-10-25T03:23:56.285Z,13.63
2022-10-25T03:26:22.883Z,13.65
2022-10-25T03:28:49.524Z,13.63
2022-10-25T03:31:17.761Z,13.64
2022-10-25T03:33:44.560Z,13.66
2022-10-25T03:36:11.161Z,13.65
2022-10-25T03:38:37.785Z,13.66
2022-10-25T03:41:04.594Z,13.70
2022-10-25T03:43:31.189Z,13.73
2022-10-25T03:45:58.582Z,13.77
2022-10-25T03:48:25.334Z,13.81
2022-10-25T03:50:53.809Z,13.84
2022-10-25T03:53:20.772Z,13.86
2022-10-25T03:55:48.210Z,13.89
2022-10-25T03:58:14.795Z,13.89
2022-10-25T04:00:41.489Z,13.89
2022-10-25T04:03:09.347Z,13.90
2022-10-25T04:05:35.895Z,13.90
2022-10-25T04:08:02.460Z,13.87
2022-10-25T04:10:29.010Z,13.88
2022-10-25T04:12:55.626Z,13.89
2022-10-25T04:15:23.421Z,13.91
2022-10-25T04:17:53.483Z,13.93
2022-10-25T04:20:21.182Z,13.93
2022-10-25T04:22:55.813Z,13.92
2022-10-25T04:25:24.192Z,13.85
2022-10-25T04:27:50.818Z,13.79
2022-10-25T04:30:17.567Z,13.73
2022-10-25T04:32:44.316Z,13.71
2022-10-25T04:35:12.759Z,13.66
2022-10-25T04:37:39.440Z,13.65
2022-10-25T04:40:06.880Z,13.61
2022-10-25T04:42:34.400Z,13.60
2022-10-25T04:45:01.364Z,13.58
2022-10-25T04:47:31.314Z,13.60
2022-10-25T04:49:58.124Z,13.62
2022-10-25T04:52:24.785Z,13.62
2022-10-25T04:54:51.435Z,13.65
2022-10-25T04:57:17.958Z,13.65
2022-10-25T04:59:44.522Z,13.67
2022-10-25T05:02:12.362Z,13.68
2022-10-25T05:04:38.940Z,13.69
2022-10-25T05:07:05.483Z,13.69
2022-10-25T05:09:32.057Z,13.70
2022-10-25T05:11:58.663Z,13.68
2022-10-25T05:14:25.236Z,13.70
2022-10-25T05:16:51.832Z,13.72
2022-10-25T05:19:18.457Z,13.72
2022-10-25T05:21:45.001Z,13.73
2022-10-25T05:24:11.565Z,13.72
2022-10-25T05:26:38.217Z,13.73
2022-10-25T05:29:09.970Z,13.77
2022-10-25T05:31:38.715Z,13.79
2022-10-25T05:34:05.352Z,13.83
2022-10-25T05:36:33.754Z,13.84
2022-10-25T05:39:01.712Z,13.86
2022-10-25T05:41:30.817Z,13.87
2022-10-25T05:44:00.085Z,13.89
2022-10-25T05:46:27.075Z,13.90
2022-10-25T05:48:54.096Z,13.92
2022-10-25T05:51:34.546Z,13.92
2022-10-25T05:54:05.542Z,13.94
2022-10-25T05:56:33.255Z,13.96
2022-10-25T05:59:12.490Z,13.98
2022-10-25T06:01:41.744Z,14.00
2022-10-25T06:04:09.898Z,14.00
2022-10-25T06:06:38.577Z,14.01
2022-10-25T06:09:06.126Z,13.99
2022-10-25T06:11:33.862Z,13.98
2022-10-25T06:14:00.479Z,13.98
2022-10-25T06:16:27.121Z,14.01
2022-10-25T06:18:54.564Z,14.05
2022-10-25T06:21:24.392Z,14.08
2022-10-25T06:23:51.219Z,14.10
2022-10-25T06:26:20.495Z,14.15
2022-10-25T06:28:47.341Z,14.17
2022-10-25T06:31:16.534Z,14.18
2022-10-25T06:33:43.766Z,14.19
2022-10-25T06:36:14.910Z,14.22
2022-10-25T06:38:41.832Z,14.26
2022-10-25T06:41:12.703Z,14.30
2022-10-25T06:43:39.287Z,14.31
2022-10-25T06:46:07.681Z,14.36
2022-10-25T06:48:34.694Z,14.43
2022-10-25T06:51:03.390Z,14.46
2022-10-25T06:53:30.215Z,14.49
2022-10-25T06:56:05.502Z,14.55
2022-10-25T06:58:35.018Z,14.60
2022-10-25T07:01:02.647Z,14.64
2022-10-25T07:03:34.750Z,14.60
2022-10-25T07:06:25.697Z,14.54
2022-10-25T07:08:58.769Z,14.53
2022-10-25T07:11:26.871Z,14.51
2022-10-25T07:13:53.404Z,14.48
2022-10-25T07:16:21.189Z,14.37
2022-10-25T07:18:48.531Z,14.27
2022-10-25T07:21:17.882Z,14.20
2022-10-25T07:23:44.906Z,14.12
2022-10-25T07:26:12.891Z,14.06
2022-10-25T07:28:39.983Z,14.01
2022-10-25T07:31:07.619Z,13.98
2022-10-25T07:33:34.167Z,13.94
2022-10-25T07:36:11.245Z,13.91
2022-10-25T07:38:38.810Z,13.88
2022-10-25T07:41:05.852Z,13.85
2022-10-25T07:43:32.381Z,13.86
2022-10-25T07:45:59.042Z,13.86
2022-10-25T07:48:25.647Z,13.90
2022-10-25T07:50:52.294Z,13.95
2022-10-25T07:53:19.023Z,13.99
2022-10-25T07:55:55.638Z,14.01
2022-10-25T07:58:22.446Z,14.03
2022-10-25T08:00:49.172Z,14.05
2022-10-25T08:03:18.043Z,14.11
2022-10-25T08:05:46.321Z,14.14
2022-10-25T08:08:13.829Z,14.19
2022-10-25T08:10:44.598Z,14.21
2022-10-25T08:13:11.463Z,14.26
2022-10-25T08:15:40.774Z,14.33
2022-10-25T08:18:07.607Z,14.46
2022-10-25T08:20:56.773Z,14.58
2022-10-25T08:23:20.740Z,14.68
2022-10-25T08:25:47.332Z,14.77
2022-10-25T08:28:14.107Z,14.82
2022-10-25T08:30:41.324Z,14.85
2022-10-25T08:33:11.398Z,14.88
2022-10-25T08:35:38.423Z,14.96
2022-10-25T08:38:05.625Z,15.01
2022-10-25T08:40:42.967Z,15.04
2022-10-25T08:43:25.268Z,15.11
2022-10-25T08:46:10.326Z,15.22
2022-10-25T08:48:41.761Z,15.29
2022-10-25T08:51:22.418Z,15.34
2022-10-25T08:53:52.151Z,15.39
2022-10-25T08:56:19.331Z,15.42
2022-10-25T08:58:52.827Z,15.51
2022-10-25T09:01:26.622Z,15.54
2022-10-25T09:03:53.350Z,15.60
2022-10-25T09:06:36.204Z,15.59
2022-10-25T09:09:25.477Z,15.51
2022-10-25T09:12:16.640Z,15.48
2022-10-25T09:15:08.135Z,15.43
2022-10-25T09:17:50.267Z,15.45
2022-10-25T09:20:19.964Z,15.53
2022-10-25T09:22:50.044Z,15.65
2022-10-25T09:25:26.615Z,15.76
2022-10-25T09:28:03.678Z,15.81
2022-10-25T09:30:37.552Z,15.90
2022-10-25T09:33:10.489Z,15.92
2022-10-25T09:35:48.830Z,15.97
2022-10-25T09:38:29.695Z,16.06
2022-10-25T09:41:03.092Z,16.05
2022-10-25T09:43:37.632Z,16.15
2022-10-25T09:46:13.944Z,16.18
2022-10-25T09:48:53.225Z,16.12
2022-10-25T09:51:31.872Z,16.11
2022-10-25T09:54:02.102Z,16.16
2022-10-25T09:56:28.643Z,16.22
2022-10-25T09:58:55.276Z,16.26
2022-10-25T10:01:29.240Z,16.23
2022-10-25T10:04:12.567Z,16.20
2022-10-25T10:06:40.223Z,16.26
2022-10-25T10:09:10.821Z,16.37
2022-10-25T10:11:38.470Z,16.30
2022-10-25T10:14:16.123Z,16.28
2022-10-25T10:16:47.372Z,16.17
2022-10-25T10:19:18.711Z,16.05
2022-10-25T10:21:58.509Z,15.95
2022-10-25T10:24:33.697Z,15.89
2022-10-25T10:27:03.058Z,15.87
2022-10-25T10:29:38.451Z,15.83
2022-10-25T10:32:21.995Z,15.83
2022-10-25T10:34:55.054Z,15.88
2022-10-25T10:37:22.729Z,15.97
2022-10-25T10:39:58.433Z,16.13
2022-10-25T10:42:34.847Z,16.20
2022-10-25T10:45:09.111Z,16.25
2022-10-25T10:47:55.849Z,16.40
2022-10-25T10:50:22.559Z,16.57
2022-10-25T10:52:55.215Z,16.71
2022-10-25T10:55:37.905Z,16.76
2022-10-25T10:58:14.948Z,16.84
2022-10-25T11:00:52.742Z,16.80
2022-10-25T11:03:48.731Z,16.85
2022-10-25T11:06:36.548Z,16.91
2022-10-25T11:09:17.790Z,17.03
2022-10-25T11:11:45.982Z,17.04
2022-10-25T11:14:19.707Z,17.15
2022-10-25T11:17:10.985Z,17.14
2022-10-25T11:20:10.677Z,17.16
2022-10-25T11:23:06.759Z,17.11
2022-10-25T11:25:49.496Z,17.10
2022-10-25T11:28:48.247Z,17.13
2022-10-25T11:31:26.448Z,17.14
2022-10-25T11:34:48.867Z,17.17
2022-10-25T11:37:31.170Z,17.30
2022-10-25T11:40:06.761Z,17.47
2022-10-25T11:42:52.583Z,17.60
2022-10-25T11:45:27.497Z,17.68
2022-10-25T11:48:24.112Z,17.80
2022-10-25T11:51:12.404Z,17.85
2022-10-25T11:54:10.303Z,18.04
2022-10-25T11:56:56.808Z,17.93
2022-10-25T11:59:41.621Z,17.86
2022-10-25T12:02:36.025Z,17.95
2022-10-25T12:05:27.933Z,18.17
2022-10-25T12:08:13.713Z,18.09
2022-10-25T12:11:00.645Z,17.97
2022-10-25T12:13:35.601Z,18.05
2022-10-25T12:16:05.123Z,18.15
2022-10-25T12:18:45.890Z,18.24
2022-10-25T12:21:30.967Z,18.33
2022-10-25T12:23:57.907Z,18.33
2022-10-25T12:26:34.683Z,18.25
2022-10-25T12:29:10.659Z,18.18
2022-10-25T12:31:43.081Z,18.27
2022-10-25T12:34:17.454Z,18.43
2022-10-25T12:36:47.260Z,18.50
2022-10-25T12:39:30.580Z,18.54
2022-10-25T12:42:04.688Z,18.46
2022-10-25T12:45:08.048Z,18.37
2022-10-25T12:47:48.680Z,18.25
2022-10-25T12:50:50.674Z,18.19
2022-10-25T12:53:36.246Z,18.31
2022-10-25T12:56:27.428Z,18.31
2022-10-25T12:59:14.487Z,18.33
2022-10-25T13:02:05.677Z,18.36
2022-10-25T13:04:35.203Z,18.46
2022-10-25T13:07:05.096Z,18.34
2022-10-25T13:09:34.046Z,18.04
2022-10-25T13:12:30.558Z,17.73
2022-10-25T13:14:58.973Z,17.51
2022-10-25T13:17:25.466Z,17.31
2022-10-25T13:19:54.982Z,17.21
2022-10-25T13:22:27.931Z,17.08
2022-10-25T13:24:54.585Z,16.95
2022-10-25T13:27:27.121Z,16.88
2022-10-25T13:30:04.153Z,16.82
2022-10-25T13:32:39.404Z,16.80
2022-10-25T13:35:26.159Z,16.71
2022-10-25T13:38:07.815Z,16.61
2022-10-25T13:40:34.634Z,16.55
2022-10-25T13:43:04.210Z,16.49
2022-10-25T13:45:42.805Z,16.47
2022-10-25T13:48:20.227Z,16.46
2022-10-25T13:50:53.942Z,16.48
2022-10-25T13:53:32.725Z,16.49
2022-10-25T13:56:07.190Z,16.47
2022-10-25T13:58:33.897Z,16.49
2022-10-25T14:01:15.510Z,16.50
2022-10-25T14:03:50.006Z,16.50
2022-10-25T14:06:36.787Z,16.53
2022-10-25T14:09:08.913Z,16.54
2022-10-25T14:11:56.550Z,16.57
2022-10-25T14:14:48.078Z,16.56
2022-10-25T14:17:37.644Z,16.56
2022-10-25T14:20:10.470Z,16.57
2022-10-25T14:22:46.543Z,16.63
2022-10-25T14:25:39.821Z,16.62
2022-10-25T14:28:15.140Z,16.57
2022-10-25T14:30:47.861Z,16.53
2022-10-25T14:33:33.837Z,16.46
2022-10-25T14:36:04.969Z,16.40
2022-10-25T14:38:33.163Z,16.36
2022-10-25T14:41:02.599Z,16.34
2022-10-25T14:43:37.539Z,16.30
2022-10-25T14:46:17.977Z,16.26
2022-10-25T14:48:47.013Z,16.21
2022-10-25T14:51:24.257Z,16.18
2022-10-25T14:53:57.897Z,16.15
2022-10-25T14:56:38.346Z,16.18
2022-10-25T14:59:07.689Z,16.18
2022-10-25T15:01:35.381Z,16.16
2022-10-25T15:04:02.146Z,16.15
2022-10-25T15:06:32.157Z,16.15
2022-10-25T15:09:41.711Z,16.14
2022-10-25T15:12:11.733Z,16.07
2022-10-25T15:14:38.314Z,16.04
2022-10-25T15:17:16.357Z,15.96
2022-10-25T15:20:16.953Z,15.91
2022-10-25T15:22:49.474Z,15.87
2022-10-25T15:25:37.995Z,15.85
2022-10-25T15:28:13.061Z,15.80
2022-10-25T15:30:48.377Z,15.77
2022-10-25T15:33:19.835Z,15.72
2022-10-25T15:35:58.339Z,15.66
2022-10-25T15:38:47.808Z,15.58
2022-10-25T15:41:17.907Z,15.51
2022-10-25T15:43:44.494Z,15.44
2022-10-25T15:46:24.737Z,15.38
2022-10-25T15:48:51.800Z,15.32
2022-10-25T15:51:18.943Z,15.27
2022-10-25T15:53:45.495Z,15.23
2022-10-25T15:56:15.004Z,15.16
2022-10-25T15:58:41.559Z,15.09
2022-10-25T16:01:08.295Z,15.02
2022-10-25T16:03:34.862Z,14.93
2022-10-25T16:06:01.432Z,14.87
2022-10-25T16:08:28.102Z,14.80
2022-10-25T16:10:54.754Z,14.72
2022-10-25T16:13:27.482Z,14.65
2022-10-25T16:15:55.187Z,14.59
2022-10-25T16:18:21.841Z,14.51
2022-10-25T16:20:49.038Z,14.45
2022-10-25T16:23:17.290Z,14.38
2022-10-25T16:25:44.129Z,14.33
2022-10-25T16:28:14.358Z,14.28
2022-10-25T16:30:43.757Z,14.23
2022-10-25T16:33:10.564Z,14.20
2022-10-25T16:35:37.186Z,14.16
2022-10-25T16:38:04.437Z,14.13
2022-10-25T16:40:31.186Z,14.10
2022-10-25T16:42:58.387Z,14.04
2022-10-25T16:45:28.723Z,14.00
2022-10-25T16:47:57.018Z,13.96
2022-10-25T16:50:27.473Z,13.92
2022-10-25T16:52:57.048Z,13.86
2022-10-25T16:55:24.749Z,13.81
2022-10-25T16:57:51.267Z,13.77
2022-10-25T17:00:17.851Z,13.72
2022-10-25T17:02:44.382Z,13.67
2022-10-25T17:05:18.790Z,13.65
2022-10-25T17:07:45.907Z,13.63
2022-10-25T17:10:14.053Z,13.62
2022-10-25T17:12:52.097Z,13.60
2022-10-25T17:15:20.968Z,13.56
2022-10-25T17:17:48.246Z,13.52
2022-10-25T17:20:16.480Z,13.49
2022-10-25T17:22:44.092Z,13.47
2022-10-25T17:25:11.544Z,13.40
2022-10-25T17:27:40.470Z,13.37
2022-10-25T17:30:08.543Z,13.32
2022-10-25T17:32:35.463Z,13.28
2022-10-25T17:35:02.031Z,13.25
2022-10-25T17:37:28.875Z,13.22
2022-10-25T17:39:55.413Z,13.17
2022-10-25T17:42:22.345Z,13.14
2022-10-25T17:44:49.247Z,13.12
2022-10-25T17:47:16.238Z,13.09
2022-10-25T17:49:42.884Z,13.08
2022-10-25T17:52:09.766Z,13.05
2022-10-25T17:54:38.512Z,13.01
2022-10-25T17:57:05.912Z,12.98
2022-10-25T17:59:33.197Z,12.95
2022-10-25T18:02:00.026Z,12.91
2022-10-25T18:04:26.882Z,12.87
2022-10-25T18:06:53.637Z,12.85
2022-10-25T18:09:21.717Z,12.83
2022-10-25T18:11:48.503Z,12.79
2022-10-25T18:14:15.087Z,12.76
2022-10-25T18:16:41.648Z,12.73
2022-10-25T18:19:12.767Z,12.69
2022-10-25T18:21:39.487Z,12.66
2022-10-25T18:24:06.480Z,12.64
2022-10-25T18:26:34.155Z,12.61
2022-10-25T18:29:00.673Z,12.59
2022-10-25T18:31:27.570Z,12.58
2022-10-25T18:33:55.453Z,12.55
2022-10-25T18:36:22.106Z,12.52
2022-10-25T18:38:49.465Z,12.50
2022-10-25T18:41:18.974Z,12.48
2022-10-25T18:43:45.826Z,12.47
2022-10-25T18:46:12.971Z,12.45
2022-10-25T18:48:39.868Z,12.47
2022-10-25T18:51:10.182Z,12.50
2022-10-25T18:53:38.565Z,12.58
2022-10-25T18:56:19.546Z,12.66
2022-10-25T18:58:48.963Z,12.75
2022-10-25T19:01:20.947Z,12.80
2022-10-25T19:03:47.623Z,12.84
2022-10-25T19:06:14.749Z,12.89
2022-10-25T19:08:41.406Z,12.89
2022-10-25T19:11:10.688Z,12.85
2022-10-25T19:13:37.600Z,12.77
2022-10-25T19:16:05.168Z,12.68
2022-10-25T19:18:33.754Z,12.60
2022-10-25T19:21:06.458Z,12.52
2022-10-25T19:23:33.357Z,12.46
2022-10-25T19:26:04.943Z,12.38
2022-10-25T19:28:32.131Z,12.32
2022-10-25T19:31:14.195Z,12.27
2022-10-25T19:33:46.170Z,12.23
2022-10-25T19:36:12.813Z,12.17
2022-10-25T19:38:40.342Z,12.12
2022-10-25T19:41:10.050Z,12.08
2022-10-25T19:43:36.613Z,12.03
2022-10-25T19:46:05.369Z,11.99
2022-10-25T19:48:33.014Z,11.95
2022-10-25T19:51:10.914Z,11.90
2022-10-25T19:53:37.663Z,11.87
2022-10-25T19:56:08.559Z,11.83
2022-10-25T19:58:35.702Z,11.80
2022-10-25T20:01:14.040Z,11.77
2022-10-25T20:03:41.767Z,11.73
2022-10-25T20:06:20.050Z,11.70
2022-10-25T20:08:50.114Z,11.66
2022-10-25T20:11:18.115Z,11.62
2022-10-25T20:13:45.436Z,11.59
2022-10-25T20:16:13.808Z,11.54
2022-10-25T20:18:41.431Z,11.49
2022-10-25T20:21:11.410Z,11.43
2022-10-25T20:23:39.081Z,11.41
2022-10-25T20:26:18.165Z,11.38
2022-10-25T20:28:46.286Z,11.35
2022-10-25T20:31:13.731Z,11.32
2022-10-25T20:33:40.866Z,11.30
2022-10-25T20:36:10.559Z,11.26
2022-10-25T20:38:37.829Z,11.25
2022-10-25T20:41:05.407Z,11.21
2022-10-25T20:43:32.826Z,11.18
2022-10-25T20:45:59.973Z,11.15
2022-10-25T20:48:27.041Z,11.12
2022-10-25T20:55:49.578Z,11.06
2022-10-25T20:58:17.454Z,11.05
2022-10-25T21:00:45.331Z,11.02
2022-10-25T21:03:13.029Z,10.99
2022-10-25T21:05:43.052Z,10.95
2022-10-25T21:08:10.588Z,10.92
2022-10-25T21:10:37.333Z,10.91
2022-10-25T21:13:04.065Z,10.88
2022-10-25T21:15:30.659Z,10.85
2022-10-25T21:17:57.152Z,10.81
2022-10-25T21:20:23.908Z,10.79
2022-10-25T21:22:50.494Z,10.79
2022-10-25T21:25:17.060Z,10.79
2022-10-25T21:27:43.609Z,10.83
2022-10-25T21:30:10.597Z,10.91
2022-10-25T21:32:37.082Z,10.99
2022-10-25T21:35:03.808Z,11.07
2022-10-25T21:37:30.277Z,11.11
2022-10-25T21:39:56.827Z,11.11
2022-10-25T21:42:23.386Z,11.11
2022-10-25T21:44:49.922Z,11.10
2022-10-25T21:47:16.432Z,11.06
2022-10-25T21:49:43.021Z,11.05
2022-10-25T21:52:09.650Z,11.04
2022-10-25T21:54:36.187Z,11.06
2022-10-25T21:57:02.760Z,11.11
2022-10-25T21:59:29.361Z,11.18
2022-10-25T22:01:56.048Z,11.27
2022-10-25T22:04:23.877Z,11.35
2022-10-25T22:06:50.426Z,11.43
2022-10-25T22:09:16.989Z,11.50
2022-10-25T22:11:43.555Z,11.57
2022-10-25T22:14:13.288Z,11.63
2022-10-25T22:16:40.408Z,11.66
2022-10-25T22:19:12.846Z,11.68
2022-10-25T22:21:40.774Z,11.70
2022-10-25T22:24:09.158Z,11.71
2022-10-25T22:26:37.818Z,11.73
2022-10-25T22:29:04.700Z,11.71
2022-10-25T22:31:32.591Z,11.64
2022-10-25T22:34:02.633Z,11.54
2022-10-25T22:36:31.662Z,11.45
2022-10-25T22:38:58.621Z,11.35
2022-10-25T22:41:27.161Z,11.27
2022-10-25T22:43:54.205Z,11.20
2022-10-25T22:46:25.278Z,11.13
2022-10-25T22:48:53.979Z,11.06
2022-10-25T22:51:22.289Z,11.01
2022-10-25T22:53:48.832Z,10.97
2022-10-25T22:56:20.803Z,10.92
2022-10-25T22:58:53.165Z,10.88
2022-10-25T23:01:23.211Z,10.81
2022-10-25T23:03:54.910Z,10.76
2022-10-25T23:06:29.565Z,10.72
2022-10-25T23:08:57.985Z,10.69
2022-10-25T23:11:27.129Z,10.65
2022-10-25T23:13:53.924Z,10.63
2022-10-25T23:16:20.922Z,10.59
2022-10-25T23:18:47.577Z,10.54
2022-10-25T23:21:20.002Z,10.50
2022-10-25T23:23:46.974Z,10.48
2022-10-25T23:26:24.964Z,10.44
2022-10-25T23:28:51.497Z,10.41
2022-10-25T23:31:18.362Z,10.39
2022-10-25T23:33:45.338Z,10.35
2022-10-25T23:36:15.678Z,10.33
2022-10-25T23:38:45.856Z,10.30
2022-10-25T23:41:12.845Z,10.27
2022-10-25T23:43:39.793Z,10.25
2022-10-25T23:46:08.281Z,10.23
2022-10-25T23:48:35.441Z,10.20
2022-10-25T23:51:13.307Z,10.17
2022-10-25T23:53:40.203Z,10.15
2022-10-25T23:56:08.783Z,10.13
2022-10-25T23:58:35.752Z,10.10
